createdAt,value
2023-03-28T00:00:34.158Z,1.14
2023-03-28T00:03:22.838Z,1.10
2023-03-28T00:06:01.126Z,1.10
2023-03-28T00:08:34.525Z,1.10
2023-03-28T00:11:19.671Z,1.10
2023-03-28T00:13:58.411Z,1.10
2023-03-28T00:16:33.839Z,1.10
2023-03-28T00:19:10.254Z,1.10
2023-03-28T00:21:47.661Z,1.10
2023-03-28T00:24:22.653Z,1.10
2023-03-28T00:26:55.802Z,1.10
2023-03-28T00:29:30.343Z,1.10
2023-03-28T00:32:03.579Z,1.08
2023-03-28T00:34:36.849Z,1.10
2023-03-28T00:37:10.904Z,1.10
2023-03-28T00:39:50.195Z,1.02
2023-03-28T00:42:25.286Z,1.04
2023-03-28T00:45:00.634Z,1.08
2023-03-28T00:47:44.049Z,1.10
2023-03-28T00:50:21.715Z,1.10
2023-03-28T00:52:58.695Z,1.10
2023-03-28T00:55:35.924Z,1.10
2023-03-28T00:58:14.900Z,1.10
2023-03-28T01:00:49.353Z,1.10
2023-03-28T01:03:27.806Z,1.10
2023-03-28T01:06:03.645Z,1.02
2023-03-28T01:08:46.499Z,1.04
2023-03-28T01:11:21.932Z,1.08
2023-03-28T01:13:56.825Z,1.10
2023-03-28T01:16:41.549Z,1.10
2023-03-28T01:19:29.737Z,1.10
2023-03-28T01:22:35.910Z,1.20
2023-03-28T01:25:39.310Z,1.22
2023-03-28T01:28:26.891Z,1.30
2023-03-28T01:31:33.226Z,1.40
2023-03-28T01:35:20.951Z,1.40
2023-03-28T01:37:59.459Z,1.44
2023-03-28T01:40:42.586Z,1.42
2023-03-28T01:43:32.096Z,1.50
2023-03-28T01:46:13.325Z,1.50
2023-03-28T01:48:59.218Z,1.50
2023-03-28T01:51:52.311Z,1.60
2023-03-28T01:54:35.641Z,1.60
2023-03-28T01:57:16.714Z,1.60
2023-03-28T01:59:56.344Z,1.70
2023-03-28T02:02:39.381Z,1.70
2023-03-28T02:05:36.130Z,1.70
2023-03-28T02:08:14.114Z,1.70
2023-03-28T02:10:53.894Z,1.70
2023-03-28T02:13:50.403Z,1.70
2023-03-28T02:16:51.053Z,1.70
2023-03-28T02:19:44.309Z,1.74
2023-03-28T02:22:40.223Z,1.80
2023-03-28T02:25:34.399Z,1.80
2023-03-28T02:28:46.095Z,1.80
2023-03-28T02:31:32.706Z,1.80
2023-03-28T02:34:06.180Z,1.80
2023-03-28T02:36:53.851Z,1.80
2023-03-28T02:39:43.828Z,1.80
2023-03-28T02:43:06.914Z,1.80
2023-03-28T02:46:14.105Z,1.82
2023-03-28T02:49:18.838Z,1.88
2023-03-28T02:52:02.307Z,1.88
2023-03-28T02:54:43.304Z,1.80
2023-03-28T02:57:47.653Z,1.80
2023-03-28T03:00:22.980Z,1.76
2023-03-28T03:02:56.329Z,1.70
2023-03-28T03:05:29.549Z,1.70
2023-03-28T03:08:02.655Z,1.70
2023-03-28T03:10:36.196Z,1.66
2023-03-28T03:13:09.299Z,1.62
2023-03-28T03:15:42.715Z,1.64
2023-03-28T03:18:35.142Z,1.64
2023-03-28T03:21:09.453Z,1.70
2023-03-28T03:23:43.019Z,1.70
2023-03-28T03:26:16.073Z,1.70
2023-03-28T03:28:58.780Z,1.74
2023-03-28T03:31:33.419Z,1.80
2023-03-28T03:34:18.875Z,1.80
2023-03-28T03:36:56.481Z,1.82
2023-03-28T03:39:29.480Z,1.90
2023-03-28T03:42:02.548Z,1.90
2023-03-28T03:44:37.133Z,1.90
2023-03-28T03:47:10.782Z,1.84
2023-03-28T03:49:43.895Z,1.80
2023-03-28T03:52:17.706Z,1.70
2023-03-28T03:54:50.981Z,1.70
2023-03-28T03:57:24.431Z,1.70
2023-03-28T04:00:10.400Z,1.78
2023-03-28T04:02:52.755Z,1.80
2023-03-28T04:05:33.014Z,1.80
2023-03-28T04:08:08.098Z,1.80
2023-03-28T04:10:44.311Z,1.80
2023-03-28T04:13:18.395Z,1.80
2023-03-28T04:15:56.766Z,1.80
2023-03-28T04:18:40.863Z,1.84
2023-03-28T04:21:17.128Z,1.80
2023-03-28T04:23:50.175Z,1.78
2023-03-28T04:26:50.284Z,1.70
2023-03-28T04:29:30.851Z,1.60
2023-03-28T04:32:22.500Z,1.60
2023-03-28T04:35:11.981Z,1.50
2023-03-28T04:37:45.134Z,1.50
2023-03-28T04:40:18.998Z,1.50
2023-03-28T04:43:05.942Z,1.50
2023-03-28T04:45:41.565Z,1.50
2023-03-28T04:48:21.023Z,1.50
2023-03-28T04:50:54.876Z,1.58
2023-03-28T04:53:28.556Z,1.60
2023-03-28T04:56:24.410Z,1.60
2023-03-28T04:58:57.565Z,1.50
2023-03-28T05:01:34.957Z,1.50
2023-03-28T05:04:28.208Z,1.40
2023-03-28T05:07:02.742Z,1.40
2023-03-28T05:09:36.382Z,1.30
2023-03-28T05:12:10.489Z,1.30
2023-03-28T05:14:59.509Z,1.20
2023-03-28T05:17:32.877Z,1.16
2023-03-28T05:20:11.300Z,1.10
2023-03-28T05:23:10.907Z,1.10
2023-03-28T05:25:50.774Z,1.12
2023-03-28T05:28:24.030Z,1.20
2023-03-28T05:30:58.975Z,1.26
2023-03-28T05:33:33.762Z,1.30
2023-03-28T05:36:07.612Z,1.40
2023-03-28T05:38:40.696Z,1.50
2023-03-28T05:41:18.222Z,1.50
2023-03-28T05:43:51.373Z,1.60
2023-03-28T05:46:35.466Z,1.60
2023-03-28T05:49:08.545Z,1.70
2023-03-28T05:51:41.621Z,1.70
2023-03-28T05:54:15.599Z,1.70
2023-03-28T05:56:48.662Z,1.70
2023-03-28T05:59:25.037Z,1.78
2023-03-28T06:01:58.659Z,1.80
2023-03-28T06:04:31.783Z,1.90
2023-03-28T06:07:05.403Z,1.90
2023-03-28T06:09:38.901Z,2.00
2023-03-28T06:12:12.194Z,2.00
2023-03-28T06:14:49.240Z,2.00
2023-03-28T06:17:35.136Z,2.00
2023-03-28T06:20:11.043Z,2.00
2023-03-28T06:22:44.458Z,2.10
2023-03-28T06:25:17.581Z,2.20
2023-03-28T06:27:50.635Z,2.30
2023-03-28T06:30:24.236Z,2.30
2023-03-28T06:32:57.428Z,2.40
2023-03-28T06:35:30.558Z,2.40
2023-03-28T06:38:03.815Z,2.40
2023-03-28T06:40:37.283Z,2.50
2023-03-28T06:43:10.351Z,2.58
2023-03-28T06:45:49.085Z,2.80
2023-03-28T06:48:22.253Z,2.96
2023-03-28T06:51:14.179Z,3.00
2023-03-28T06:53:47.573Z,2.90
2023-03-28T06:56:21.401Z,2.80
2023-03-28T06:58:54.762Z,2.70
2023-03-28T07:01:30.850Z,2.70
2023-03-28T07:04:16.335Z,2.70
2023-03-28T07:06:50.719Z,2.62
2023-03-28T07:09:23.872Z,2.60
2023-03-28T07:12:02.447Z,2.50
2023-03-28T07:14:35.816Z,2.60
2023-03-28T07:17:09.016Z,2.60
2023-03-28T07:19:42.610Z,2.64
2023-03-28T07:22:15.750Z,2.84
2023-03-28T07:24:49.108Z,3.00
2023-03-28T07:27:23.840Z,3.10
2023-03-28T07:29:58.158Z,3.18
2023-03-28T07:32:39.265Z,3.30
2023-03-28T07:35:20.990Z,3.42
2023-03-28T07:37:54.619Z,3.60
2023-03-28T07:40:40.568Z,3.80
2023-03-28T07:43:13.920Z,3.90
2023-03-28T07:45:47.895Z,4.28
2023-03-28T07:48:21.508Z,4.60
2023-03-28T07:50:54.576Z,4.60
2023-03-28T07:53:27.744Z,4.48
2023-03-28T07:56:02.132Z,4.30
2023-03-28T07:58:42.947Z,4.30
2023-03-28T08:01:18.941Z,4.30
2023-03-28T08:04:21.787Z,4.40
2023-03-28T08:07:07.848Z,4.50
2023-03-28T08:09:41.239Z,4.52
2023-03-28T08:12:21.864Z,4.60
2023-03-28T08:14:55.622Z,4.70
2023-03-28T08:17:29.340Z,4.80
2023-03-28T08:20:02.902Z,5.10
2023-03-28T08:22:35.928Z,5.40
2023-03-28T08:25:17.570Z,5.50
2023-03-28T08:27:51.062Z,5.60
2023-03-28T08:30:24.363Z,5.36
2023-03-28T08:33:04.680Z,5.02
2023-03-28T08:35:39.372Z,4.80
2023-03-28T08:38:20.083Z,4.70
2023-03-28T08:41:04.241Z,4.58
2023-03-28T08:44:17.104Z,4.70
2023-03-28T08:46:54.147Z,5.28
2023-03-28T08:49:27.710Z,5.90
2023-03-28T08:52:05.700Z,6.30
2023-03-28T08:54:47.145Z,6.70
2023-03-28T08:57:26.738Z,6.54
2023-03-28T09:00:13.016Z,7.02
2023-03-28T09:02:47.239Z,7.72
2023-03-28T09:05:30.856Z,8.42
2023-03-28T09:08:27.200Z,8.60
2023-03-28T09:11:10.699Z,8.54
2023-03-28T09:13:53.994Z,9.44
2023-03-28T09:16:44.759Z,9.40
2023-03-28T09:19:48.330Z,8.28
2023-03-28T09:23:15.699Z,7.00
2023-03-28T09:26:17.377Z,7.36
2023-03-28T09:28:58.623Z,8.40
2023-03-28T09:31:39.132Z,9.00
2023-03-28T09:34:23.185Z,9.10
2023-03-28T09:37:02.559Z,7.82
2023-03-28T09:39:42.048Z,5.98
2023-03-28T09:42:28.935Z,4.54
2023-03-28T09:45:38.090Z,3.56
2023-03-28T09:48:32.542Z,3.00
2023-03-28T09:51:15.100Z,2.90
2023-03-28T09:53:48.506Z,3.10
2023-03-28T09:56:31.456Z,3.42
2023-03-28T09:59:27.796Z,4.74
2023-03-28T10:02:04.174Z,7.14
2023-03-28T10:04:44.924Z,9.10
2023-03-28T10:07:45.530Z,10.28
2023-03-28T10:10:43.030Z,9.20
2023-03-28T10:13:21.049Z,8.30
2023-03-28T10:15:59.864Z,7.26
2023-03-28T10:19:14.891Z,6.60
2023-03-28T10:21:59.010Z,6.96
2023-03-28T10:24:34.214Z,9.04
2023-03-28T10:27:21.353Z,10.30
2023-03-28T10:29:56.626Z,9.56
2023-03-28T10:32:33.095Z,10.84
2023-03-28T10:35:26.494Z,12.64
2023-03-28T10:38:22.572Z,13.90
2023-03-28T10:41:26.202Z,14.16
2023-03-28T10:44:30.680Z,15.16
2023-03-28T10:47:13.410Z,15.10
2023-03-28T10:49:55.301Z,14.12
2023-03-28T10:52:39.690Z,11.94
2023-03-28T10:55:21.283Z,10.50
2023-03-28T10:58:14.535Z,10.76
2023-03-28T11:01:02.054Z,10.76
2023-03-28T11:03:59.664Z,11.54
2023-03-28T11:06:42.865Z,10.74
2023-03-28T11:09:28.167Z,9.64
2023-03-28T11:12:58.477Z,8.48
2023-03-28T11:15:43.433Z,7.46
2023-03-28T11:18:45.132Z,6.70
2023-03-28T11:21:29.735Z,6.10
2023-03-28T11:24:21.126Z,5.66
2023-03-28T11:27:15.615Z,5.20
2023-03-28T11:30:12.368Z,5.36
2023-03-28T11:32:56.711Z,5.40
2023-03-28T11:35:37.367Z,4.90
2023-03-28T11:38:16.649Z,4.60
2023-03-28T11:40:58.241Z,6.00
2023-03-28T11:43:59.649Z,9.76
2023-03-28T11:46:38.381Z,12.70
2023-03-28T11:49:22.534Z,11.96
2023-03-28T11:52:05.301Z,10.32
2023-03-28T11:54:44.523Z,8.82
2023-03-28T11:57:23.591Z,7.66
2023-03-28T12:00:07.790Z,7.72
2023-03-28T12:02:54.157Z,7.06
2023-03-28T12:05:35.073Z,6.40
2023-03-28T12:08:13.563Z,6.56
2023-03-28T12:10:54.988Z,7.66
2023-03-28T12:14:01.421Z,11.00
2023-03-28T12:16:49.065Z,13.86
2023-03-28T12:19:31.418Z,15.42
2023-03-28T12:22:19.823Z,16.86
2023-03-28T12:25:06.288Z,17.60
2023-03-28T12:28:02.552Z,18.30
2023-03-28T12:30:43.210Z,16.90
2023-03-28T12:33:22.916Z,13.84
2023-03-28T12:36:13.561Z,12.32
2023-03-28T12:38:57.997Z,13.66
2023-03-28T12:41:40.511Z,13.22
2023-03-28T12:44:21.054Z,11.22
2023-03-28T12:46:59.557Z,9.74
2023-03-28T12:49:41.755Z,8.90
2023-03-28T12:52:21.140Z,7.94
2023-03-28T12:55:02.871Z,6.96
2023-03-28T12:57:49.915Z,5.94
2023-03-28T13:01:23.361Z,5.42
2023-03-28T13:04:23.837Z,6.32
2023-03-28T13:07:15.760Z,8.20
2023-03-28T13:09:59.842Z,8.20
2023-03-28T13:12:45.846Z,7.80
2023-03-28T13:15:34.740Z,7.16
2023-03-28T13:18:36.807Z,6.58
2023-03-28T13:21:11.082Z,6.12
2023-03-28T13:23:51.372Z,5.64
2023-03-28T13:26:24.979Z,5.10
2023-03-28T13:29:02.535Z,4.72
2023-03-28T13:31:35.779Z,4.80
2023-03-28T13:34:19.299Z,7.82
2023-03-28T13:36:56.782Z,10.84
2023-03-28T13:39:29.911Z,11.76
2023-03-28T13:42:06.222Z,10.60
2023-03-28T13:44:52.308Z,9.60
2023-03-28T13:47:33.455Z,9.20
2023-03-28T13:50:17.560Z,11.34
2023-03-28T13:52:50.693Z,13.50
2023-03-28T13:55:27.271Z,15.22
2023-03-28T13:58:03.586Z,16.46
2023-03-28T14:00:36.985Z,17.20
2023-03-28T14:03:16.406Z,18.00
2023-03-28T14:05:49.925Z,18.10
2023-03-28T14:08:26.776Z,18.40
2023-03-28T14:11:01.025Z,18.62
2023-03-28T14:13:34.468Z,19.00
2023-03-28T14:16:10.393Z,18.80
2023-03-28T14:18:47.973Z,18.94
2023-03-28T14:21:24.141Z,19.16
2023-03-28T14:24:03.016Z,17.28
2023-03-28T14:26:38.322Z,14.62
2023-03-28T14:29:16.023Z,12.48
2023-03-28T14:31:51.651Z,10.68
2023-03-28T14:34:32.234Z,9.42
2023-03-28T14:37:06.513Z,8.84
2023-03-28T14:39:40.642Z,10.80
2023-03-28T14:42:20.727Z,11.24
2023-03-28T14:44:56.326Z,11.38
2023-03-28T14:47:32.576Z,10.22
2023-03-28T14:50:08.432Z,9.14
2023-03-28T14:52:44.774Z,9.90
2023-03-28T14:55:23.131Z,10.06
2023-03-28T14:57:57.986Z,10.72
2023-03-28T15:00:42.108Z,11.08
2023-03-28T15:03:20.459Z,9.86
2023-03-28T15:05:55.896Z,8.96
2023-03-28T15:08:34.660Z,8.30
2023-03-28T15:11:15.785Z,7.80
2023-03-28T15:13:51.091Z,7.50
2023-03-28T15:16:28.193Z,7.10
2023-03-28T15:19:07.288Z,6.76
2023-03-28T15:21:42.787Z,6.50
2023-03-28T15:24:19.878Z,6.22
2023-03-28T15:26:57.836Z,6.00
2023-03-28T15:29:34.572Z,5.82
2023-03-28T15:32:14.344Z,5.70
2023-03-28T15:34:59.616Z,5.60
2023-03-28T15:37:44.287Z,5.50
2023-03-28T15:40:29.451Z,5.40
2023-03-28T15:43:04.136Z,5.30
2023-03-28T15:45:54.600Z,5.20
2023-03-28T15:48:28.852Z,5.10
2023-03-28T15:51:06.910Z,5.00
2023-03-28T15:53:41.807Z,4.98
2023-03-28T15:56:27.297Z,4.90
2023-03-28T15:59:05.385Z,4.90
2023-03-28T16:01:38.541Z,4.90
2023-03-28T16:04:28.920Z,4.90
2023-03-28T16:07:14.437Z,4.90
2023-03-28T16:09:48.015Z,4.90
2023-03-28T16:12:21.452Z,4.90
2023-03-28T16:15:14.718Z,4.82
2023-03-28T16:17:55.732Z,4.80
2023-03-28T16:20:43.173Z,4.74
2023-03-28T16:23:16.648Z,4.70
2023-03-28T16:25:49.838Z,4.70
2023-03-28T16:28:23.010Z,4.64
2023-03-28T16:30:56.723Z,4.60
2023-03-28T16:33:29.979Z,4.60
2023-03-28T16:36:03.467Z,4.56
2023-03-28T16:38:36.727Z,4.50
2023-03-28T16:41:10.934Z,4.44
2023-03-28T16:43:44.057Z,4.40
2023-03-28T16:46:17.280Z,4.40
2023-03-28T16:48:50.383Z,4.30
2023-03-28T16:51:24.591Z,4.24
2023-03-28T16:53:57.843Z,4.20
2023-03-28T16:56:31.547Z,4.10
2023-03-28T16:59:05.856Z,4.00
2023-03-28T17:01:39.301Z,3.90
2023-03-28T17:04:12.500Z,3.80
2023-03-28T17:06:46.028Z,3.72
2023-03-28T17:09:19.087Z,3.68
2023-03-28T17:11:52.282Z,3.52
2023-03-28T17:14:25.618Z,3.40
2023-03-28T17:16:58.747Z,3.30
2023-03-28T17:19:33.210Z,3.20
2023-03-28T17:22:06.349Z,3.10
2023-03-28T17:24:39.463Z,3.04
2023-03-28T17:27:12.584Z,2.96
2023-03-28T17:29:45.742Z,2.90
2023-03-28T17:32:18.848Z,2.80
2023-03-28T17:34:52.641Z,2.70
2023-03-28T17:37:25.747Z,2.60
2023-03-28T17:39:59.244Z,2.50
2023-03-28T17:42:32.540Z,2.48
2023-03-28T17:45:06.964Z,2.40
2023-03-28T17:47:40.256Z,2.30
2023-03-28T17:50:14.370Z,2.20
2023-03-28T17:52:47.495Z,2.10
2023-03-28T17:55:20.865Z,2.00
2023-03-28T17:57:54.005Z,1.92
2023-03-28T18:00:30.158Z,1.82
2023-03-28T18:03:04.573Z,1.80
2023-03-28T18:06:16.183Z,1.70
2023-03-28T18:08:49.320Z,1.60
2023-03-28T18:11:23.176Z,1.50
2023-03-28T18:13:59.081Z,1.50
2023-03-28T18:16:32.452Z,1.40
2023-03-28T18:19:07.028Z,1.40
2023-03-28T18:21:40.199Z,1.30
2023-03-28T18:24:13.505Z,1.28
2023-03-28T18:26:46.611Z,1.20
2023-03-28T18:29:19.893Z,1.20
2023-03-28T18:31:52.933Z,1.10
2023-03-28T18:34:26.259Z,1.10
2023-03-28T18:37:00.361Z,1.10
2023-03-28T18:39:34.196Z,1.00
2023-03-28T18:42:08.419Z,1.00
2023-03-28T18:44:43.425Z,0.90
2023-03-28T18:47:16.884Z,0.90
2023-03-28T18:49:49.937Z,0.80
2023-03-28T18:52:22.998Z,0.80
2023-03-28T18:54:56.124Z,0.72
2023-03-28T18:57:29.257Z,0.70
2023-03-28T19:00:06.697Z,0.70
2023-03-28T19:02:40.248Z,0.70
2023-03-28T19:05:15.365Z,0.70
2023-03-28T19:07:49.063Z,0.70
2023-03-28T19:10:22.333Z,0.66
2023-03-28T19:12:56.168Z,0.60
2023-03-28T19:15:29.932Z,0.60
2023-03-28T19:18:04.201Z,0.60
2023-03-28T19:20:38.601Z,0.50
2023-03-28T19:23:11.635Z,0.50
2023-03-28T19:25:45.267Z,0.50
2023-03-28T19:28:18.702Z,0.48
2023-03-28T19:30:57.333Z,0.40
2023-03-28T19:33:30.910Z,0.40
2023-03-28T19:36:05.894Z,0.40
2023-03-28T19:38:40.757Z,0.30
2023-03-28T19:41:22.366Z,0.30
2023-03-28T19:43:55.548Z,0.28
2023-03-28T19:46:33.705Z,0.24
2023-03-28T19:49:09.249Z,0.20
2023-03-28T19:51:42.500Z,0.20
2023-03-28T19:54:15.752Z,0.20
2023-03-28T19:56:48.962Z,0.20
2023-03-28T19:59:22.345Z,0.18
2023-03-28T20:01:55.776Z,0.20
2023-03-28T20:04:29.465Z,0.20
2023-03-28T20:07:02.755Z,0.20
2023-03-28T20:09:35.849Z,0.30
2023-03-28T20:12:09.535Z,0.30
2023-03-28T20:14:42.856Z,0.40
2023-03-28T20:17:16.621Z,0.40
2023-03-28T20:19:51.693Z,0.40
2023-03-28T20:22:25.847Z,0.48
2023-03-28T20:24:58.936Z,0.44
2023-03-28T20:27:32.244Z,0.40
2023-03-28T20:30:05.916Z,0.40
2023-03-28T20:32:39.095Z,0.40
2023-03-28T20:35:13.272Z,0.40
2023-03-28T20:37:46.523Z,0.40
2023-03-28T20:40:20.109Z,0.36
2023-03-28T20:42:53.781Z,0.30
2023-03-28T20:45:26.905Z,0.28
2023-03-28T20:48:06.650Z,0.20
2023-03-28T20:50:41.522Z,0.20
2023-03-28T20:53:14.797Z,0.20
2023-03-28T20:55:48.262Z,0.20
2023-03-28T20:58:21.672Z,0.20
2023-03-28T21:00:58.620Z,0.20
2023-03-28T21:03:47.135Z,0.14
2023-03-28T21:06:24.845Z,0.10
2023-03-28T21:09:00.799Z,0.10
2023-03-28T21:11:37.171Z,0.00
2023-03-28T21:14:12.988Z,0.00
2023-03-28T21:16:47.706Z,-0.10
2023-03-28T21:19:21.000Z,-0.12
2023-03-28T21:21:54.404Z,-0.20
2023-03-28T21:24:27.594Z,-0.20
2023-03-28T21:27:00.589Z,-0.20
2023-03-28T21:29:33.762Z,-0.30
2023-03-28T21:32:07.034Z,-0.30
2023-03-28T21:34:43.287Z,-0.30
2023-03-28T21:37:17.642Z,-0.30
2023-03-28T21:39:50.823Z,-0.30
2023-03-28T21:42:24.278Z,-0.30
2023-03-28T21:44:57.265Z,-0.30
2023-03-28T21:47:30.525Z,-0.30
2023-03-28T21:50:05.903Z,-0.30
2023-03-28T21:52:39.152Z,-0.30
2023-03-28T21:55:13.208Z,-0.30
2023-03-28T21:57:46.159Z,-0.30
2023-03-28T22:00:20.868Z,-0.30
2023-03-28T22:02:54.473Z,-0.30
2023-03-28T22:05:29.573Z,-0.28
2023-03-28T22:08:03.090Z,-0.20
2023-03-28T22:10:36.723Z,-0.20
2023-03-28T22:13:09.804Z,-0.20
2023-03-28T22:15:43.075Z,-0.20
2023-03-28T22:18:16.068Z,-0.20
2023-03-28T22:20:53.585Z,-0.28
2023-03-28T22:23:27.336Z,-0.30
2023-03-28T22:26:00.573Z,-0.30
2023-03-28T22:28:33.715Z,-0.30
2023-03-28T22:31:07.341Z,-0.40
2023-03-28T22:33:43.064Z,-0.40
2023-03-28T22:36:17.000Z,-0.50
2023-03-28T22:38:50.205Z,-0.50
2023-03-28T22:41:23.960Z,-0.60
2023-03-28T22:43:57.177Z,-0.70
2023-03-28T22:46:30.290Z,-0.80
2023-03-28T22:49:04.712Z,-0.80
2023-03-28T22:51:44.117Z,-0.90
2023-03-28T22:54:21.182Z,-0.90
2023-03-28T22:56:54.359Z,-0.90
2023-03-28T22:59:27.821Z,-0.92
2023-03-28T23:02:01.001Z,-1.00
2023-03-28T23:04:34.975Z,-1.00
2023-03-28T23:07:09.249Z,-1.10
2023-03-28T23:09:43.300Z,-1.20
2023-03-28T23:12:16.427Z,-1.30
2023-03-28T23:14:49.395Z,-1.36
2023-03-28T23:17:22.784Z,-1.42
2023-03-28T23:19:56.037Z,-1.50
2023-03-28T23:22:29.263Z,-1.60
2023-03-28T23:25:02.947Z,-1.70
2023-03-28T23:27:36.086Z,-1.72
2023-03-28T23:30:12.220Z,-1.80
2023-03-28T23:32:45.584Z,-1.90
2023-03-28T23:35:18.792Z,-1.90
2023-03-28T23:37:53.399Z,-1.98
2023-03-28T23:40:26.590Z,-2.00
2023-03-28T23:42:59.923Z,-2.00
2023-03-28T23:45:33.052Z,-2.04
2023-03-28T23:48:06.644Z,-2.10
2023-03-28T23:50:40.056Z,-2.10
2023-03-28T23:53:13.248Z,-2.14
2023-03-28T23:55:46.335Z,-2.20
2023-03-28T23:58:19.344Z,-2.20
